sensor_id;sensor_type;location;lat;lon;timestamp;temperature;humidity
14099;DHT22;7126;48.458;7.930;2022-09-20T00:01:31;10.80;99.90
14099;DHT22;7126;48.458;7.930;2022-09-20T00:04:00;10.80;99.90
14099;DHT22;7126;48.458;7.930;2022-09-20T00:06:28;10.80;99.90
14099;DHT22;7126;48.458;7.930;2022-09-20T00:08:55;10.80;99.90
14099;DHT22;7126;48.458;7.930;2022-09-20T00:11:23;10.80;99.90
14099;DHT22;7126;48.458;7.930;2022-09-20T00:13:51;10.50;99.90
14099;DHT22;7126;48.458;7.930;2022-09-20T00:16:32;10.50;99.90
14099;DHT22;7126;48.458;7.930;2022-09-20T00:18:59;10.50;99.90
14099;DHT22;7126;48.458;7.930;2022-09-20T00:21:27;10.40;99.90
14099;DHT22;7126;48.458;7.930;2022-09-20T00:23:53;10.30;99.90
14099;DHT22;7126;48.458;7.930;2022-09-20T00:26:19;10.30;99.90
14099;DHT22;7126;48.458;7.930;2022-09-20T00:28:45;10.30;99.90
14099;DHT22;7126;48.458;7.930;2022-09-20T00:31:12;10.30;99.90
14099;DHT22;7126;48.458;7.930;2022-09-20T00:33:38;10.30;99.90
14099;DHT22;7126;48.458;7.930;2022-09-20T00:36:23;10.30;99.90
14099;DHT22;7126;48.458;7.930;2022-09-20T00:38:53;10.30;99.90
14099;DHT22;7126;48.458;7.930;2022-09-20T00:41:18;10.20;99.90
14099;DHT22;7126;48.458;7.930;2022-09-20T00:43:45;10.30;99.90
14099;DHT22;7126;48.458;7.930;2022-09-20T00:46:36;10.30;99.90
14099;DHT22;7126;48.458;7.930;2022-09-20T00:49:11;10.30;99.90
14099;DHT22;7126;48.458;7.930;2022-09-20T00:51:40;10.40;99.90
14099;DHT22;7126;48.458;7.930;2022-09-20T00:54:08;10.50;99.90
14099;DHT22;7126;48.458;7.930;2022-09-20T00:56:37;10.50;99.90
14099;DHT22;7126;48.458;7.930;2022-09-20T00:59:14;10.50;99.90
14099;DHT22;7126;48.458;7.930;2022-09-20T01:01:43;10.60;99.90
14099;DHT22;7126;48.458;7.930;2022-09-20T01:04:11;10.60;99.90
14099;DHT22;7126;48.458;7.930;2022-09-20T01:06:38;10.70;99.90
14099;DHT22;7126;48.458;7.930;2022-09-20T01:09:05;10.60;99.90
14099;DHT22;7126;48.458;7.930;2022-09-20T01:11:33;10.60;99.90
14099;DHT22;7126;48.458;7.930;2022-09-20T01:13:59;10.70;99.90
14099;DHT22;7126;48.458;7.930;2022-09-20T01:16:26;10.60;99.90
14099;DHT22;7126;48.458;7.930;2022-09-20T01:18:52;10.50;99.90
14099;DHT22;7126;48.458;7.930;2022-09-20T01:21:20;10.30;99.90
14099;DHT22;7126;48.458;7.930;2022-09-20T01:24:06;10.30;99.90
14099;DHT22;7126;48.458;7.930;2022-09-20T01:32:23;10.00;99.90
14099;DHT22;7126;48.458;7.930;2022-09-20T01:34:53;10.00;99.90
14099;DHT22;7126;48.458;7.930;2022-09-20T01:37:57;10.00;99.90
14099;DHT22;7126;48.458;7.930;2022-09-20T01:40:29;10.00;99.90
14099;DHT22;7126;48.458;7.930;2022-09-20T01:43:26;10.00;99.90
14099;DHT22;7126;48.458;7.930;2022-09-20T01:45:53;10.00;99.90
14099;DHT22;7126;48.458;7.930;2022-09-20T01:48:38;10.00;99.90
14099;DHT22;7126;48.458;7.930;2022-09-20T02:05:05;9.90;99.90
14099;DHT22;7126;48.458;7.930;2022-09-20T02:13:31;9.90;99.90
14099;DHT22;7126;48.458;7.930;2022-09-20T02:19:08;9.80;99.90
14099;DHT22;7126;48.458;7.930;2022-09-20T02:21:43;9.60;99.90
14099;DHT22;7126;48.458;7.930;2022-09-20T02:24:39;9.60;99.90
14099;DHT22;7126;48.458;7.930;2022-09-20T02:35:32;9.60;99.90
14099;DHT22;7126;48.458;7.930;2022-09-20T02:38:28;9.60;99.90
14099;DHT22;7126;48.458;7.930;2022-09-20T02:44:27;9.50;99.90
14099;DHT22;7126;48.458;7.930;2022-09-20T02:49:56;9.40;99.90
14099;DHT22;7126;48.458;7.930;2022-09-20T02:52:34;9.40;99.90
14099;DHT22;7126;48.458;7.930;2022-09-20T02:55:16;9.40;99.90
14099;DHT22;7126;48.458;7.930;2022-09-20T03:00:31;9.20;99.90
14099;DHT22;7126;48.458;7.930;2022-09-20T03:05:50;9.30;99.90
14099;DHT22;7126;48.458;7.930;2022-09-20T03:11:22;9.20;99.90
14099;DHT22;7126;48.458;7.930;2022-09-20T03:14:12;9.20;99.90
14099;DHT22;7126;48.458;7.930;2022-09-20T03:22:07;9.10;99.90
14099;DHT22;7126;48.458;7.930;2022-09-20T03:27:40;9.20;99.90
14099;DHT22;7126;48.458;7.930;2022-09-20T03:38:38;9.20;99.90
14099;DHT22;7126;48.458;7.930;2022-09-20T03:46:27;9.30;99.90
14099;DHT22;7126;48.458;7.930;2022-09-20T03:57:31;9.00;99.90
14099;DHT22;7126;48.458;7.930;2022-09-20T04:03:17;8.90;99.90
14099;DHT22;7126;48.458;7.930;2022-09-20T04:06:20;9.00;99.90
14099;DHT22;7126;48.458;7.930;2022-09-20T04:12:13;8.80;99.90
14099;DHT22;7126;48.458;7.930;2022-09-20T04:14:53;8.80;99.90
14099;DHT22;7126;48.458;7.930;2022-09-20T04:20:20;8.90;99.90
14099;DHT22;7126;48.458;7.930;2022-09-20T04:22:50;8.80;99.90
14099;DHT22;7126;48.458;7.930;2022-09-20T04:25:22;8.80;99.90
14099;DHT22;7126;48.458;7.930;2022-09-20T04:27:54;8.70;99.90
14099;DHT22;7126;48.458;7.930;2022-09-20T04:30:23;8.70;99.90
14099;DHT22;7126;48.458;7.930;2022-09-20T04:33:14;8.70;99.90
14099;DHT22;7126;48.458;7.930;2022-09-20T04:52:37;8.50;99.90
14099;DHT22;7126;48.458;7.930;2022-09-20T04:58:17;8.40;99.90
14099;DHT22;7126;48.458;7.930;2022-09-20T05:03:32;8.50;99.90
14099;DHT22;7126;48.458;7.930;2022-09-20T05:11:29;8.30;99.90
14099;DHT22;7126;48.458;7.930;2022-09-20T05:14:38;8.30;99.90
14099;DHT22;7126;48.458;7.930;2022-09-20T05:17:33;8.40;99.90
14099;DHT22;7126;48.458;7.930;2022-09-20T05:28:32;8.50;99.90
14099;DHT22;7126;48.458;7.930;2022-09-20T05:33:53;8.70;99.90
14099;DHT22;7126;48.458;7.930;2022-09-20T05:39:33;8.60;99.90
14099;DHT22;7126;48.458;7.930;2022-09-20T05:42:08;8.70;99.90
14099;DHT22;7126;48.458;7.930;2022-09-20T05:47:43;8.80;99.90
14099;DHT22;7126;48.458;7.930;2022-09-20T05:53:28;8.70;99.90
14099;DHT22;7126;48.458;7.930;2022-09-20T05:56:21;8.60;99.90
14099;DHT22;7126;48.458;7.930;2022-09-20T06:02:21;8.70;99.90
14099;DHT22;7126;48.458;7.930;2022-09-20T06:05:15;8.70;99.90
14099;DHT22;7126;48.458;7.930;2022-09-20T06:20:59;8.80;99.90
14099;DHT22;7126;48.458;7.930;2022-09-20T06:23:29;8.80;99.90
14099;DHT22;7126;48.458;7.930;2022-09-20T06:25:59;9.00;99.90
14099;DHT22;7126;48.458;7.930;2022-09-20T06:28:38;9.10;99.90
14099;DHT22;7126;48.458;7.930;2022-09-20T06:31:05;9.20;99.90
14099;DHT22;7126;48.458;7.930;2022-09-20T06:33:51;9.30;99.90
14099;DHT22;7126;48.458;7.930;2022-09-20T06:36:25;9.30;99.90
14099;DHT22;7126;48.458;7.930;2022-09-20T06:42:23;9.30;99.90
14099;DHT22;7126;48.458;7.930;2022-09-20T06:44:50;9.40;99.90
14099;DHT22;7126;48.458;7.930;2022-09-20T06:47:16;9.50;99.90
14099;DHT22;7126;48.458;7.930;2022-09-20T06:49:43;9.50;99.90
14099;DHT22;7126;48.458;7.930;2022-09-20T06:52:13;9.60;99.90
14099;DHT22;7126;48.458;7.930;2022-09-20T06:54:41;9.50;99.90
14099;DHT22;7126;48.458;7.930;2022-09-20T06:57:11;9.60;99.90
14099;DHT22;7126;48.458;7.930;2022-09-20T06:59:38;9.60;99.90
14099;DHT22;7126;48.458;7.930;2022-09-20T07:02:03;9.60;99.90
14099;DHT22;7126;48.458;7.930;2022-09-20T07:04:29;9.60;99.90
14099;DHT22;7126;48.458;7.930;2022-09-20T07:07:02;9.70;99.90
14099;DHT22;7126;48.458;7.930;2022-09-20T07:09:28;9.70;99.90
14099;DHT22;7126;48.458;7.930;2022-09-20T07:11:54;9.80;99.90
14099;DHT22;7126;48.458;7.930;2022-09-20T07:14:22;9.80;99.90
14099;DHT22;7126;48.458;7.930;2022-09-20T07:16:47;9.90;99.90
14099;DHT22;7126;48.458;7.930;2022-09-20T07:19:13;10.00;99.90
14099;DHT22;7126;48.458;7.930;2022-09-20T07:21:39;10.00;99.90
14099;DHT22;7126;48.458;7.930;2022-09-20T07:24:04;10.10;99.90
14099;DHT22;7126;48.458;7.930;2022-09-20T07:26:31;10.20;99.90
14099;DHT22;7126;48.458;7.930;2022-09-20T07:28:58;10.20;99.90
14099;DHT22;7126;48.458;7.930;2022-09-20T07:31:25;10.40;99.90
14099;DHT22;7126;48.458;7.930;2022-09-20T07:33:51;10.50;99.90
14099;DHT22;7126;48.458;7.930;2022-09-20T07:36:17;10.60;99.90
14099;DHT22;7126;48.458;7.930;2022-09-20T07:38:47;10.60;99.90
14099;DHT22;7126;48.458;7.930;2022-09-20T07:41:13;10.70;99.90
14099;DHT22;7126;48.458;7.930;2022-09-20T07:43:39;10.80;99.90
14099;DHT22;7126;48.458;7.930;2022-09-20T07:46:05;10.80;99.90
14099;DHT22;7126;48.458;7.930;2022-09-20T07:48:33;10.90;99.90
14099;DHT22;7126;48.458;7.930;2022-09-20T07:51:08;11.00;99.90
14099;DHT22;7126;48.458;7.930;2022-09-20T07:53:34;11.00;99.90
14099;DHT22;7126;48.458;7.930;2022-09-20T07:56:10;11.10;99.90
14099;DHT22;7126;48.458;7.930;2022-09-20T07:58:36;11.20;99.90
14099;DHT22;7126;48.458;7.930;2022-09-20T08:01:04;11.20;99.90
14099;DHT22;7126;48.458;7.930;2022-09-20T08:03:31;11.30;99.90
14099;DHT22;7126;48.458;7.930;2022-09-20T08:06:06;11.30;99.90
14099;DHT22;7126;48.458;7.930;2022-09-20T08:08:33;11.30;99.90
14099;DHT22;7126;48.458;7.930;2022-09-20T08:11:08;11.20;99.90
14099;DHT22;7126;48.458;7.930;2022-09-20T08:13:38;11.30;99.90
14099;DHT22;7126;48.458;7.930;2022-09-20T08:16:06;11.40;99.90
14099;DHT22;7126;48.458;7.930;2022-09-20T08:18:33;11.60;99.90
14099;DHT22;7126;48.458;7.930;2022-09-20T08:21:09;11.80;99.90
14099;DHT22;7126;48.458;7.930;2022-09-20T08:26:02;12.00;99.90
14099;DHT22;7126;48.458;7.930;2022-09-20T08:28:29;12.20;99.90
14099;DHT22;7126;48.458;7.930;2022-09-20T08:31:09;12.30;99.90
14099;DHT22;7126;48.458;7.930;2022-09-20T08:33:36;12.40;99.90
14099;DHT22;7126;48.458;7.930;2022-09-20T08:36:03;12.50;99.90
14099;DHT22;7126;48.458;7.930;2022-09-20T08:38:31;12.40;99.90
14099;DHT22;7126;48.458;7.930;2022-09-20T08:41:01;12.50;99.90
14099;DHT22;7126;48.458;7.930;2022-09-20T08:43:35;12.70;99.90
14099;DHT22;7126;48.458;7.930;2022-09-20T08:46:03;12.80;99.90
14099;DHT22;7126;48.458;7.930;2022-09-20T08:48:32;12.90;99.90
14099;DHT22;7126;48.458;7.930;2022-09-20T08:51:02;13.00;99.90
14099;DHT22;7126;48.458;7.930;2022-09-20T08:53:30;13.20;99.90
14099;DHT22;7126;48.458;7.930;2022-09-20T08:55:56;13.30;99.90
14099;DHT22;7126;48.458;7.930;2022-09-20T08:58:27;13.40;99.90
14099;DHT22;7126;48.458;7.930;2022-09-20T09:00:53;13.50;99.90
14099;DHT22;7126;48.458;7.930;2022-09-20T09:03:23;13.50;99.90
14099;DHT22;7126;48.458;7.930;2022-09-20T09:05:54;13.50;99.90
14099;DHT22;7126;48.458;7.930;2022-09-20T09:08:24;13.70;99.90
14099;DHT22;7126;48.458;7.930;2022-09-20T09:10:54;13.60;99.90
14099;DHT22;7126;48.458;7.930;2022-09-20T09:16:08;13.80;99.90
14099;DHT22;7126;48.458;7.930;2022-09-20T09:18:38;14.00;99.90
14099;DHT22;7126;48.458;7.930;2022-09-20T09:21:05;14.20;99.90
14099;DHT22;7126;48.458;7.930;2022-09-20T09:23:39;14.40;99.90
14099;DHT22;7126;48.458;7.930;2022-09-20T09:26:17;14.50;99.90
14099;DHT22;7126;48.458;7.930;2022-09-20T09:28:43;14.70;99.90
14099;DHT22;7126;48.458;7.930;2022-09-20T09:31:24;14.80;99.90
14099;DHT22;7126;48.458;7.930;2022-09-20T09:33:50;14.90;99.90
14099;DHT22;7126;48.458;7.930;2022-09-20T09:36:21;15.00;99.90
14099;DHT22;7126;48.458;7.930;2022-09-20T09:38:48;15.10;99.90
14099;DHT22;7126;48.458;7.930;2022-09-20T09:46:25;15.40;99.90
14099;DHT22;7126;48.458;7.930;2022-09-20T09:51:36;15.80;99.90
14099;DHT22;7126;48.458;7.930;2022-09-20T09:54:03;15.80;99.90
14099;DHT22;7126;48.458;7.930;2022-09-20T09:57:00;15.80;99.90
14099;DHT22;7126;48.458;7.930;2022-09-20T09:59:41;15.80;99.90
14099;DHT22;7126;48.458;7.930;2022-09-20T10:07:48;15.90;99.90
14099;DHT22;7126;48.458;7.930;2022-09-20T10:15:50;16.10;99.90
14099;DHT22;7126;48.458;7.930;2022-09-20T10:18:40;16.20;99.90
14099;DHT22;7126;48.458;7.930;2022-09-20T10:27:19;16.50;99.90
14099;DHT22;7126;48.458;7.930;2022-09-20T10:35:31;16.80;99.90
14099;DHT22;7126;48.458;7.930;2022-09-20T10:38:22;17.00;99.90
14099;DHT22;7126;48.458;7.930;2022-09-20T10:41:06;17.10;99.90
14099;DHT22;7126;48.458;7.930;2022-09-20T10:59:58;17.90;99.90
14099;DHT22;7126;48.458;7.930;2022-09-20T11:05:14;18.00;99.90
14099;DHT22;7126;48.458;7.930;2022-09-20T11:08:04;18.00;99.90
14099;DHT22;7126;48.458;7.930;2022-09-20T11:13:37;18.00;99.90
14099;DHT22;7126;48.458;7.930;2022-09-20T11:21:36;17.50;99.90
14099;DHT22;7126;48.458;7.930;2022-09-20T11:27:04;17.10;99.90
14099;DHT22;7126;48.458;7.930;2022-09-20T11:32:05;16.70;99.90
14099;DHT22;7126;48.458;7.930;2022-09-20T11:34:39;16.60;99.90
14099;DHT22;7126;48.458;7.930;2022-09-20T11:37:08;16.50;99.90
14099;DHT22;7126;48.458;7.930;2022-09-20T11:39:41;16.40;99.90
14099;DHT22;7126;48.458;7.930;2022-09-20T11:42:18;16.30;99.90
14099;DHT22;7126;48.458;7.930;2022-09-20T11:44:45;16.20;99.90
14099;DHT22;7126;48.458;7.930;2022-09-20T11:47:38;16.20;99.90
14099;DHT22;7126;48.458;7.930;2022-09-20T11:53:31;16.20;99.90
14099;DHT22;7126;48.458;7.930;2022-09-20T11:56:25;16.20;99.90
14099;DHT22;7126;48.458;7.930;2022-09-20T11:58:53;16.20;99.90
14099;DHT22;7126;48.458;7.930;2022-09-20T12:01:29;16.30;99.90
14099;DHT22;7126;48.458;7.930;2022-09-20T12:04:12;16.30;99.90
14099;DHT22;7126;48.458;7.930;2022-09-20T12:06:45;16.50;99.90
14099;DHT22;7126;48.458;7.930;2022-09-20T12:09:37;16.60;99.90
14099;DHT22;7126;48.458;7.930;2022-09-20T12:12:15;16.60;99.90
14099;DHT22;7126;48.458;7.930;2022-09-20T12:14:56;16.70;99.90
14099;DHT22;7126;48.458;7.930;2022-09-20T12:26:04;18.40;99.90
14099;DHT22;7126;48.458;7.930;2022-09-20T12:28:34;18.90;99.90
14099;DHT22;7126;48.458;7.930;2022-09-20T12:39:24;19.00;99.90
14099;DHT22;7126;48.458;7.930;2022-09-20T12:47:27;18.90;99.90
14099;DHT22;7126;48.458;7.930;2022-09-20T12:49:55;18.90;99.90
14099;DHT22;7126;48.458;7.930;2022-09-20T12:57:57;18.60;99.90
14099;DHT22;7126;48.458;7.930;2022-09-20T13:03:10;18.20;99.90
14099;DHT22;7126;48.458;7.930;2022-09-20T13:05:39;18.00;99.90
14099;DHT22;7126;48.458;7.930;2022-09-20T13:10:41;17.70;99.90
14099;DHT22;7126;48.458;7.930;2022-09-20T13:16:02;17.40;99.90
14099;DHT22;7126;48.458;7.930;2022-09-20T13:18:30;17.30;99.90
14099;DHT22;7126;48.458;7.930;2022-09-20T13:20:57;17.20;99.90
14099;DHT22;7126;48.458;7.930;2022-09-20T13:23:36;17.20;99.90
14099;DHT22;7126;48.458;7.930;2022-09-20T13:26:09;17.10;99.90
14099;DHT22;7126;48.458;7.930;2022-09-20T13:28:44;17.10;99.90
14099;DHT22;7126;48.458;7.930;2022-09-20T13:33:46;17.00;99.90
14099;DHT22;7126;48.458;7.930;2022-09-20T13:36:12;17.00;99.90
14099;DHT22;7126;48.458;7.930;2022-09-20T13:38:38;17.10;99.90
14099;DHT22;7126;48.458;7.930;2022-09-20T13:41:07;17.20;99.90
14099;DHT22;7126;48.458;7.930;2022-09-20T13:43:44;17.30;99.90
14099;DHT22;7126;48.458;7.930;2022-09-20T13:46:22;17.60;99.90
14099;DHT22;7126;48.458;7.930;2022-09-20T13:49:08;17.90;99.90
14099;DHT22;7126;48.458;7.930;2022-09-20T13:51:34;18.20;99.90
14099;DHT22;7126;48.458;7.930;2022-09-20T13:54:30;18.50;99.90
14099;DHT22;7126;48.458;7.930;2022-09-20T13:56:59;18.90;99.90
14099;DHT22;7126;48.458;7.930;2022-09-20T13:59:30;19.20;99.90
14099;DHT22;7126;48.458;7.930;2022-09-20T14:01:58;19.30;99.90
14099;DHT22;7126;48.458;7.930;2022-09-20T14:04:27;19.20;99.90
14099;DHT22;7126;48.458;7.930;2022-09-20T14:06:55;19.00;99.90
14099;DHT22;7126;48.458;7.930;2022-09-20T14:09:31;18.80;99.90
14099;DHT22;7126;48.458;7.930;2022-09-20T14:11:58;18.50;99.90
14099;DHT22;7126;48.458;7.930;2022-09-20T14:14:25;18.30;99.90
14099;DHT22;7126;48.458;7.930;2022-09-20T14:16:53;18.10;99.90
14099;DHT22;7126;48.458;7.930;2022-09-20T14:19:22;18.00;99.90
14099;DHT22;7126;48.458;7.930;2022-09-20T14:21:50;17.90;99.90
14099;DHT22;7126;48.458;7.930;2022-09-20T14:26:42;17.60;99.90
14099;DHT22;7126;48.458;7.930;2022-09-20T14:29:28;17.50;99.90
14099;DHT22;7126;48.458;7.930;2022-09-20T14:31:56;17.40;99.90
14099;DHT22;7126;48.458;7.930;2022-09-20T14:34:22;17.40;99.90
14099;DHT22;7126;48.458;7.930;2022-09-20T14:36:48;17.40;99.90
14099;DHT22;7126;48.458;7.930;2022-09-20T14:39:16;17.40;99.90
14099;DHT22;7126;48.458;7.930;2022-09-20T14:41:45;17.40;99.90
14099;DHT22;7126;48.458;7.930;2022-09-20T14:44:31;17.30;99.90
14099;DHT22;7126;48.458;7.930;2022-09-20T14:46:58;17.30;99.90
14099;DHT22;7126;48.458;7.930;2022-09-20T14:51:53;17.20;99.90
14099;DHT22;7126;48.458;7.930;2022-09-20T14:54:38;17.10;99.90
14099;DHT22;7126;48.458;7.930;2022-09-20T14:57:05;17.10;99.90
14099;DHT22;7126;48.458;7.930;2022-09-20T14:59:41;17.00;99.90
14099;DHT22;7126;48.458;7.930;2022-09-20T15:04:34;16.90;99.90
14099;DHT22;7126;48.458;7.930;2022-09-20T15:07:03;16.90;99.90
14099;DHT22;7126;48.458;7.930;2022-09-20T15:09:30;16.80;99.90
14099;DHT22;7126;48.458;7.930;2022-09-20T15:14:25;16.80;99.90
14099;DHT22;7126;48.458;7.930;2022-09-20T15:16:51;16.80;99.90
14099;DHT22;7126;48.458;7.930;2022-09-20T15:19:16;16.80;99.90
14099;DHT22;7126;48.458;7.930;2022-09-20T15:21:42;16.80;99.90
14099;DHT22;7126;48.458;7.930;2022-09-20T15:24:08;16.80;99.90
14099;DHT22;7126;48.458;7.930;2022-09-20T15:26:34;16.80;99.90
14099;DHT22;7126;48.458;7.930;2022-09-20T15:29:00;16.70;99.90
14099;DHT22;7126;48.458;7.930;2022-09-20T15:31:26;16.70;99.90
14099;DHT22;7126;48.458;7.930;2022-09-20T15:33:52;16.80;99.90
14099;DHT22;7126;48.458;7.930;2022-09-20T15:36:18;16.70;99.90
14099;DHT22;7126;48.458;7.930;2022-09-20T15:38:43;16.70;99.90
14099;DHT22;7126;48.458;7.930;2022-09-20T15:41:10;16.70;99.90
14099;DHT22;7126;48.458;7.930;2022-09-20T15:43:36;16.70;99.90
14099;DHT22;7126;48.458;7.930;2022-09-20T15:46:23;16.60;99.90
14099;DHT22;7126;48.458;7.930;2022-09-20T15:48:52;16.50;99.90
14099;DHT22;7126;48.458;7.930;2022-09-20T15:51:18;16.60;99.90
14099;DHT22;7126;48.458;7.930;2022-09-20T15:53:45;16.50;99.90
14099;DHT22;7126;48.458;7.930;2022-09-20T15:56:18;16.50;99.90
14099;DHT22;7126;48.458;7.930;2022-09-20T15:59:02;16.50;99.90
14099;DHT22;7126;48.458;7.930;2022-09-20T16:01:33;16.40;99.90
14099;DHT22;7126;48.458;7.930;2022-09-20T16:04:12;16.40;99.90
14099;DHT22;7126;48.458;7.930;2022-09-20T16:06:39;16.40;99.90
14099;DHT22;7126;48.458;7.930;2022-09-20T16:09:06;16.40;99.90
14099;DHT22;7126;48.458;7.930;2022-09-20T16:11:32;16.40;99.90
14099;DHT22;7126;48.458;7.930;2022-09-20T16:13:59;16.30;99.90
14099;DHT22;7126;48.458;7.930;2022-09-20T16:16:26;16.30;99.90
14099;DHT22;7126;48.458;7.930;2022-09-20T16:18:53;16.20;99.90
14099;DHT22;7126;48.458;7.930;2022-09-20T16:21:39;16.20;99.90
14099;DHT22;7126;48.458;7.930;2022-09-20T16:24:05;16.10;99.90
14099;DHT22;7126;48.458;7.930;2022-09-20T16:26:31;16.10;99.90
14099;DHT22;7126;48.458;7.930;2022-09-20T16:28:59;16.10;99.90
14099;DHT22;7126;48.458;7.930;2022-09-20T16:31:37;16.10;99.90
14099;DHT22;7126;48.458;7.930;2022-09-20T16:36:36;16.00;99.90
14099;DHT22;7126;48.458;7.930;2022-09-20T16:39:02;16.00;99.90
14099;DHT22;7126;48.458;7.930;2022-09-20T16:41:28;15.90;99.90
14099;DHT22;7126;48.458;7.930;2022-09-20T16:43:54;15.90;99.90
14099;DHT22;7126;48.458;7.930;2022-09-20T16:46:22;15.80;99.90
14099;DHT22;7126;48.458;7.930;2022-09-20T16:48:55;15.80;99.90
14099;DHT22;7126;48.458;7.930;2022-09-20T16:51:22;15.70;99.90
14099;DHT22;7126;48.458;7.930;2022-09-20T16:53:51;15.70;99.90
14099;DHT22;7126;48.458;7.930;2022-09-20T16:56:25;15.60;99.90
14099;DHT22;7126;48.458;7.930;2022-09-20T16:58:52;15.60;99.90
14099;DHT22;7126;48.458;7.930;2022-09-20T17:01:18;15.60;99.90
14099;DHT22;7126;48.458;7.930;2022-09-20T17:03:44;15.60;99.90
14099;DHT22;7126;48.458;7.930;2022-09-20T17:06:10;15.60;99.90
14099;DHT22;7126;48.458;7.930;2022-09-20T17:08:37;15.50;99.90
14099;DHT22;7126;48.458;7.930;2022-09-20T17:11:12;15.50;99.90
14099;DHT22;7126;48.458;7.930;2022-09-20T17:13:40;15.50;99.90
14099;DHT22;7126;48.458;7.930;2022-09-20T17:16:17;15.50;99.90
14099;DHT22;7126;48.458;7.930;2022-09-20T17:18:43;15.40;99.90
14099;DHT22;7126;48.458;7.930;2022-09-20T17:21:13;15.40;99.90
14099;DHT22;7126;48.458;7.930;2022-09-20T17:23:44;15.40;99.90
14099;DHT22;7126;48.458;7.930;2022-09-20T17:26:15;15.40;99.90
14099;DHT22;7126;48.458;7.930;2022-09-20T17:28:43;15.40;99.90
14099;DHT22;7126;48.458;7.930;2022-09-20T17:31:11;15.30;99.90
14099;DHT22;7126;48.458;7.930;2022-09-20T17:33:38;15.30;99.90
14099;DHT22;7126;48.458;7.930;2022-09-20T17:36:05;15.20;99.90
14099;DHT22;7126;48.458;7.930;2022-09-20T17:38:33;15.20;99.90
14099;DHT22;7126;48.458;7.930;2022-09-20T17:41:00;15.20;99.90
14099;DHT22;7126;48.458;7.930;2022-09-20T17:43:26;15.10;99.90
14099;DHT22;7126;48.458;7.930;2022-09-20T17:45:53;15.10;99.90
14099;DHT22;7126;48.458;7.930;2022-09-20T17:48:19;15.10;99.90
14099;DHT22;7126;48.458;7.930;2022-09-20T17:50:57;15.10;99.90
14099;DHT22;7126;48.458;7.930;2022-09-20T17:53:22;15.10;99.90
14099;DHT22;7126;48.458;7.930;2022-09-20T17:55:54;15.00;99.90
14099;DHT22;7126;48.458;7.930;2022-09-20T17:58:21;15.00;99.90
14099;DHT22;7126;48.458;7.930;2022-09-20T18:00:46;14.90;99.90
14099;DHT22;7126;48.458;7.930;2022-09-20T18:03:12;14.90;99.90
14099;DHT22;7126;48.458;7.930;2022-09-20T18:05:39;14.90;99.90
14099;DHT22;7126;48.458;7.930;2022-09-20T18:08:04;14.80;99.90
14099;DHT22;7126;48.458;7.930;2022-09-20T18:10:30;14.80;99.90
14099;DHT22;7126;48.458;7.930;2022-09-20T18:12:56;14.70;99.90
14099;DHT22;7126;48.458;7.930;2022-09-20T18:15:21;14.70;99.90
14099;DHT22;7126;48.458;7.930;2022-09-20T18:17:48;14.60;99.90
14099;DHT22;7126;48.458;7.930;2022-09-20T18:20:14;14.60;99.90
14099;DHT22;7126;48.458;7.930;2022-09-20T18:22:39;14.60;99.90
14099;DHT22;7126;48.458;7.930;2022-09-20T18:25:05;14.50;99.90
14099;DHT22;7126;48.458;7.930;2022-09-20T18:27:31;14.50;99.90
14099;DHT22;7126;48.458;7.930;2022-09-20T18:29:58;14.50;99.90
14099;DHT22;7126;48.458;7.930;2022-09-20T18:32:24;14.40;99.90
14099;DHT22;7126;48.458;7.930;2022-09-20T18:34:51;14.40;99.90
14099;DHT22;7126;48.458;7.930;2022-09-20T18:37:16;14.40;99.90
14099;DHT22;7126;48.458;7.930;2022-09-20T18:39:42;14.40;99.90
14099;DHT22;7126;48.458;7.930;2022-09-20T18:42:08;14.40;99.90
14099;DHT22;7126;48.458;7.930;2022-09-20T18:44:34;14.30;99.90
14099;DHT22;7126;48.458;7.930;2022-09-20T18:47:01;14.20;99.90
14099;DHT22;7126;48.458;7.930;2022-09-20T18:49:28;14.30;99.90
14099;DHT22;7126;48.458;7.930;2022-09-20T18:51:55;14.20;99.90
14099;DHT22;7126;48.458;7.930;2022-09-20T18:54:21;14.10;99.90
14099;DHT22;7126;48.458;7.930;2022-09-20T18:56:48;14.10;99.90
14099;DHT22;7126;48.458;7.930;2022-09-20T18:59:18;14.10;99.90
14099;DHT22;7126;48.458;7.930;2022-09-20T19:20:58;14.10;99.90
14099;DHT22;7126;48.458;7.930;2022-09-20T19:23:56;14.00;99.90
14099;DHT22;7126;48.458;7.930;2022-09-20T19:26:27;14.00;99.90
14099;DHT22;7126;48.458;7.930;2022-09-20T19:28:55;13.90;99.90
14099;DHT22;7126;48.458;7.930;2022-09-20T19:31:28;13.90;99.90
14099;DHT22;7126;48.458;7.930;2022-09-20T19:33:55;13.90;99.90
14099;DHT22;7126;48.458;7.930;2022-09-20T19:36:23;13.90;99.90
14099;DHT22;7126;48.458;7.930;2022-09-20T19:41:47;13.80;99.90
14099;DHT22;7126;48.458;7.930;2022-09-20T19:52:14;13.70;99.90
14099;DHT22;7126;48.458;7.930;2022-09-20T19:54:40;13.70;99.90
14099;DHT22;7126;48.458;7.930;2022-09-20T19:57:08;13.70;99.90
14099;DHT22;7126;48.458;7.930;2022-09-20T19:59:37;13.70;99.90
14099;DHT22;7126;48.458;7.930;2022-09-20T20:02:03;13.70;99.90
14099;DHT22;7126;48.458;7.930;2022-09-20T20:04:30;13.70;99.90
14099;DHT22;7126;48.458;7.930;2022-09-20T20:07:22;13.60;99.90
14099;DHT22;7126;48.458;7.930;2022-09-20T20:10:17;13.60;99.90
14099;DHT22;7126;48.458;7.930;2022-09-20T20:13:08;13.60;99.90
14099;DHT22;7126;48.458;7.930;2022-09-20T20:16:01;13.60;99.90
14099;DHT22;7126;48.458;7.930;2022-09-20T20:19:15;13.60;99.90
14099;DHT22;7126;48.458;7.930;2022-09-20T20:21:56;13.60;99.90
14099;DHT22;7126;48.458;7.930;2022-09-20T20:24:35;13.50;99.90
14099;DHT22;7126;48.458;7.930;2022-09-20T20:27:01;13.50;99.90
14099;DHT22;7126;48.458;7.930;2022-09-20T20:29:27;13.50;99.90
14099;DHT22;7126;48.458;7.930;2022-09-20T20:31:52;13.50;99.90
14099;DHT22;7126;48.458;7.930;2022-09-20T20:34:18;13.50;99.90
14099;DHT22;7126;48.458;7.930;2022-09-20T20:36:45;13.50;99.90
14099;DHT22;7126;48.458;7.930;2022-09-20T20:39:11;13.50;99.90
14099;DHT22;7126;48.458;7.930;2022-09-20T20:41:37;13.50;99.90
14099;DHT22;7126;48.458;7.930;2022-09-20T20:44:05;13.50;99.90
14099;DHT22;7126;48.458;7.930;2022-09-20T20:46:31;13.50;99.90
14099;DHT22;7126;48.458;7.930;2022-09-20T20:48:57;13.50;99.90
14099;DHT22;7126;48.458;7.930;2022-09-20T20:51:23;13.50;99.90
14099;DHT22;7126;48.458;7.930;2022-09-20T20:53:51;13.50;99.90
14099;DHT22;7126;48.458;7.930;2022-09-20T20:56:25;13.50;99.90
14099;DHT22;7126;48.458;7.930;2022-09-20T20:58:52;13.50;99.90
14099;DHT22;7126;48.458;7.930;2022-09-20T21:01:18;13.40;99.90
14099;DHT22;7126;48.458;7.930;2022-09-20T21:03:49;13.40;99.90
14099;DHT22;7126;48.458;7.930;2022-09-20T21:06:16;13.40;99.90
14099;DHT22;7126;48.458;7.930;2022-09-20T21:08:44;13.40;99.90
14099;DHT22;7126;48.458;7.930;2022-09-20T21:11:12;13.30;99.90
14099;DHT22;7126;48.458;7.930;2022-09-20T21:13:38;13.30;99.90
14099;DHT22;7126;48.458;7.930;2022-09-20T21:16:05;13.30;99.90
14099;DHT22;7126;48.458;7.930;2022-09-20T21:18:32;13.30;99.90
14099;DHT22;7126;48.458;7.930;2022-09-20T21:20:58;13.30;99.90
14099;DHT22;7126;48.458;7.930;2022-09-20T21:23:23;13.30;99.90
14099;DHT22;7126;48.458;7.930;2022-09-20T21:26:02;13.20;99.90
14099;DHT22;7126;48.458;7.930;2022-09-20T21:28:31;13.20;99.90
14099;DHT22;7126;48.458;7.930;2022-09-20T21:30:57;13.20;99.90